createdAt,value
2022-12-14T00:01:38.014Z,93.50
2022-12-14T00:04:05.095Z,93.50
2022-12-14T00:06:33.046Z,93.60
2022-12-14T00:09:03.023Z,93.60
2022-12-14T00:11:29.970Z,93.60
2022-12-14T00:13:58.948Z,93.50
2022-12-14T00:16:29.406Z,93.60
2022-12-14T00:18:58.086Z,93.60
2022-12-14T00:21:25.371Z,93.70
2022-12-14T00:23:52.913Z,93.50
2022-12-14T00:26:24.900Z,93.50
2022-12-14T00:28:53.774Z,93.70
2022-12-14T00:31:21.488Z,93.80
2022-12-14T00:33:48.726Z,93.80
2022-12-14T00:36:15.535Z,93.70
2022-12-14T00:38:42.794Z,93.70
2022-12-14T00:41:10.755Z,93.70
2022-12-14T00:43:37.656Z,93.60
2022-12-14T00:46:04.733Z,93.60
2022-12-14T00:48:32.113Z,93.70
2022-12-14T00:50:59.514Z,93.60
2022-12-14T00:53:26.334Z,93.50
2022-12-14T00:55:53.302Z,93.80
2022-12-14T00:58:22.533Z,93.70
2022-12-14T01:00:59.860Z,93.80
2022-12-14T01:03:27.312Z,93.80
2022-12-14T01:05:54.494Z,93.80
2022-12-14T01:08:21.699Z,93.70
2022-12-14T01:10:48.548Z,93.80
2022-12-14T01:13:15.818Z,93.70
2022-12-14T01:15:42.668Z,93.80
2022-12-14T01:18:09.568Z,93.60
2022-12-14T01:20:36.368Z,93.70
2022-12-14T01:23:03.144Z,93.60
2022-12-14T01:25:29.983Z,93.60
2022-12-14T01:27:56.813Z,93.60
2022-12-14T01:30:23.636Z,93.50
2022-12-14T01:32:50.406Z,93.50
2022-12-14T01:35:17.366Z,93.30
2022-12-14T01:37:44.238Z,93.30
2022-12-14T01:40:11.326Z,93.30
2022-12-14T01:42:38.325Z,93.30
2022-12-14T01:45:05.876Z,93.30
2022-12-14T01:47:44.433Z,93.20
2022-12-14T01:50:30.333Z,93.10
2022-12-14T01:53:02.571Z,93.00
2022-12-14T01:55:39.642Z,92.90
2022-12-14T01:58:16.471Z,92.90
2022-12-14T02:00:44.876Z,92.90
2022-12-14T02:03:20.127Z,92.80
2022-12-14T02:05:51.381Z,92.90
2022-12-14T02:08:20.299Z,93.00
2022-12-14T02:10:48.736Z,92.90
2022-12-14T02:13:26.008Z,92.80
2022-12-14T02:15:53.445Z,92.60
2022-12-14T02:18:26.142Z,92.60
2022-12-14T02:21:28.780Z,92.50
2022-12-14T02:24:20.279Z,92.20
2022-12-14T02:27:10.064Z,92.10
2022-12-14T02:29:51.298Z,91.80
2022-12-14T02:32:26.484Z,91.70
2022-12-14T02:35:17.738Z,91.60
2022-12-14T02:37:44.458Z,91.40
2022-12-14T02:40:33.350Z,91.30
2022-12-14T02:43:00.239Z,91.30
2022-12-14T02:45:32.239Z,91.30
2022-12-14T02:48:01.256Z,91.30
2022-12-14T02:50:43.290Z,91.20
2022-12-14T02:53:18.786Z,91.30
2022-12-14T02:55:51.383Z,91.10
2022-12-14T02:58:23.446Z,91.00
2022-12-14T03:00:51.123Z,90.90
2022-12-14T03:03:18.002Z,90.90
2022-12-14T03:05:55.669Z,90.80
2022-12-14T03:08:24.149Z,90.70
2022-12-14T03:10:53.110Z,90.80
2022-12-14T03:13:37.556Z,90.70
2022-12-14T03:16:16.175Z,90.60
2022-12-14T03:18:57.217Z,90.40
2022-12-14T03:21:32.179Z,90.40
2022-12-14T03:24:02.519Z,90.30
2022-12-14T03:26:33.088Z,90.30
2022-12-14T03:29:14.621Z,90.40
2022-12-14T03:31:58.798Z,90.20
2022-12-14T03:34:32.264Z,90.20
2022-12-14T03:37:09.524Z,90.00
2022-12-14T03:39:37.548Z,89.90
2022-12-14T03:42:31.027Z,89.50
2022-12-14T03:45:09.375Z,89.50
2022-12-14T03:47:50.832Z,89.10
2022-12-14T03:50:17.561Z,89.60
2022-12-14T03:53:00.244Z,88.80
2022-12-14T03:55:44.428Z,88.60
2022-12-14T03:58:34.501Z,88.60
2022-12-14T04:01:24.657Z,88.70
2022-12-14T04:04:04.959Z,88.70
2022-12-14T04:06:50.156Z,88.70
2022-12-14T04:09:35.616Z,88.60
2022-12-14T04:12:46.512Z,88.40
2022-12-14T04:15:45.272Z,88.30
2022-12-14T04:18:40.800Z,88.20
2022-12-14T04:21:19.167Z,88.20
2022-12-14T04:24:14.112Z,88.20
2022-12-14T04:26:49.991Z,87.70
2022-12-14T04:29:45.660Z,87.60
2022-12-14T04:32:19.283Z,87.60
2022-12-14T04:34:51.089Z,87.50
2022-12-14T04:37:22.002Z,87.40
2022-12-14T04:40:07.948Z,87.30
2022-12-14T04:42:40.740Z,87.30
2022-12-14T04:45:13.717Z,87.70
2022-12-14T04:47:48.696Z,87.00
2022-12-14T04:50:25.525Z,86.90
2022-12-14T04:53:07.644Z,86.60
2022-12-14T04:55:43.732Z,86.60
2022-12-14T04:58:26.140Z,86.50
2022-12-14T05:01:22.530Z,86.30
2022-12-14T05:04:12.744Z,86.20
2022-12-14T05:07:01.032Z,86.10
2022-12-14T05:09:31.661Z,86.20
2022-12-14T05:12:12.625Z,86.30
2022-12-14T05:14:58.516Z,86.40
2022-12-14T05:17:25.276Z,86.20
2022-12-14T05:19:52.313Z,86.00
2022-12-14T05:22:19.176Z,86.00
2022-12-14T05:24:45.950Z,85.90
2022-12-14T05:27:12.980Z,85.60
2022-12-14T05:29:39.759Z,84.80
2022-12-14T05:32:06.560Z,84.40
2022-12-14T05:34:34.184Z,84.10
2022-12-14T05:37:01.117Z,84.30
2022-12-14T05:39:27.921Z,84.10
2022-12-14T05:41:54.757Z,84.20
2022-12-14T05:44:21.536Z,84.20
2022-12-14T05:46:48.381Z,84.30
2022-12-14T05:49:15.166Z,84.30
2022-12-14T05:51:41.984Z,84.20
2022-12-14T05:54:08.860Z,83.80
2022-12-14T05:56:36.281Z,83.70
2022-12-14T05:59:03.184Z,83.80
2022-12-14T06:01:30.403Z,84.00
2022-12-14T06:03:57.534Z,83.90
2022-12-14T06:06:24.359Z,83.80
2022-12-14T06:08:51.124Z,83.90
2022-12-14T06:11:20.995Z,84.00
2022-12-14T06:13:47.886Z,84.10
2022-12-14T06:16:23.126Z,84.20
2022-12-14T06:18:55.174Z,84.10
2022-12-14T06:21:25.743Z,84.10
2022-12-14T06:23:52.830Z,83.90
2022-12-14T06:26:19.785Z,83.70
2022-12-14T06:28:46.772Z,83.50
2022-12-14T06:31:22.121Z,83.20
2022-12-14T06:33:49.733Z,83.00
2022-12-14T06:36:25.071Z,82.50
2022-12-14T06:38:52.027Z,82.90
2022-12-14T06:41:19.793Z,82.70
2022-12-14T06:43:49.373Z,82.20
2022-12-14T06:46:18.333Z,82.10
2022-12-14T06:48:52.897Z,82.10
2022-12-14T06:51:20.578Z,82.10
2022-12-14T06:53:51.121Z,82.20
2022-12-14T06:56:19.879Z,82.40
2022-12-14T06:58:46.945Z,82.50
2022-12-14T07:01:16.699Z,82.60
2022-12-14T07:03:47.322Z,82.70
2022-12-14T07:06:14.331Z,82.70
2022-12-14T07:08:41.491Z,82.70
2022-12-14T07:11:13.946Z,82.60
2022-12-14T07:13:41.849Z,82.40
2022-12-14T07:16:16.438Z,83.50
2022-12-14T07:18:43.682Z,84.30
2022-12-14T07:21:13.038Z,83.90
2022-12-14T07:23:42.212Z,84.00
2022-12-14T07:26:36.409Z,84.30
2022-12-14T07:29:03.521Z,84.70
2022-12-14T07:31:30.840Z,85.10
2022-12-14T07:33:59.673Z,85.20
2022-12-14T07:36:28.381Z,85.40
2022-12-14T07:38:56.131Z,85.90
2022-12-14T07:41:31.649Z,86.50
2022-12-14T07:44:00.651Z,86.70
2022-12-14T07:46:29.421Z,87.40
2022-12-14T07:48:58.263Z,88.00
2022-12-14T07:51:28.557Z,88.50
2022-12-14T07:53:56.253Z,88.60
2022-12-14T07:56:27.218Z,89.00
2022-12-14T07:58:58.546Z,89.50
2022-12-14T08:01:28.677Z,89.70
2022-12-14T08:04:00.983Z,89.80
2022-12-14T08:06:29.537Z,90.00
2022-12-14T08:08:57.712Z,90.30
2022-12-14T08:11:25.255Z,90.60
2022-12-14T08:13:56.705Z,90.60
2022-12-14T08:16:24.713Z,90.90
2022-12-14T08:18:53.794Z,91.10
2022-12-14T08:21:22.319Z,91.30
2022-12-14T08:23:49.994Z,91.40
2022-12-14T08:26:18.117Z,91.50
2022-12-14T08:28:45.008Z,91.60
2022-12-14T08:31:15.097Z,91.60
2022-12-14T08:33:43.467Z,91.70
2022-12-14T08:36:16.668Z,91.80
2022-12-14T08:38:44.004Z,91.80
2022-12-14T08:41:15.060Z,91.80
2022-12-14T08:43:42.095Z,91.80
2022-12-14T08:46:10.037Z,91.80
2022-12-14T08:48:37.115Z,91.90
2022-12-14T08:51:06.502Z,91.80
2022-12-14T08:53:34.256Z,92.00
2022-12-14T08:56:10.548Z,92.20
2022-12-14T08:58:39.170Z,92.30
2022-12-14T09:01:08.961Z,92.50
2022-12-14T09:03:35.828Z,92.40
2022-12-14T09:06:04.693Z,92.60
2022-12-14T09:08:32.686Z,92.70
2022-12-14T09:11:00.492Z,92.90
2022-12-14T09:13:27.932Z,93.10
2022-12-14T09:16:12.833Z,93.10
2022-12-14T09:18:40.223Z,93.30
2022-12-14T09:21:08.093Z,93.60
2022-12-14T09:23:35.983Z,93.60
2022-12-14T09:26:08.290Z,93.70
2022-12-14T09:28:37.966Z,93.80
2022-12-14T09:31:07.407Z,93.70
2022-12-14T09:33:34.731Z,93.80
2022-12-14T09:36:04.176Z,93.60
2022-12-14T09:38:33.196Z,93.70
2022-12-14T09:41:07.678Z,93.90
2022-12-14T09:43:43.434Z,93.90
2022-12-14T09:46:21.689Z,93.90
2022-12-14T09:48:49.247Z,94.00
2022-12-14T09:51:19.563Z,94.00
2022-12-14T09:53:50.748Z,94.00
2022-12-14T09:56:21.009Z,94.10
2022-12-14T09:58:57.591Z,94.30
2022-12-14T10:02:13.780Z,94.40
2022-12-14T10:05:12.082Z,94.50
2022-12-14T10:07:42.779Z,94.50
2022-12-14T10:10:40.446Z,94.80
2022-12-14T10:13:25.429Z,94.70
2022-12-14T10:16:10.413Z,94.80
2022-12-14T10:19:09.138Z,94.90
2022-12-14T10:21:48.571Z,94.90
2022-12-14T10:24:30.324Z,95.00
2022-12-14T10:26:57.278Z,95.10
2022-12-14T10:29:34.666Z,95.10
2022-12-14T10:32:40.320Z,95.10
2022-12-14T10:35:23.663Z,95.00
2022-12-14T10:38:13.213Z,95.00
2022-12-14T10:40:49.333Z,95.10
2022-12-14T10:43:34.171Z,95.20
2022-12-14T10:46:19.535Z,95.40
2022-12-14T10:48:59.064Z,95.40
2022-12-14T10:51:41.368Z,95.40
2022-12-14T10:54:08.110Z,95.40
2022-12-14T10:56:38.383Z,95.40
2022-12-14T10:59:42.383Z,95.50
2022-12-14T11:02:22.440Z,95.50
2022-12-14T11:05:03.815Z,95.50
2022-12-14T11:07:33.777Z,95.60
2022-12-14T11:10:17.102Z,95.60
2022-12-14T11:13:00.521Z,95.70
2022-12-14T11:15:32.087Z,95.60
2022-12-14T11:18:06.734Z,95.70
2022-12-14T11:20:34.476Z,95.70
2022-12-14T11:23:16.733Z,95.60
2022-12-14T11:25:47.045Z,95.50
2022-12-14T11:28:37.155Z,95.60
2022-12-14T11:31:27.844Z,95.60
2022-12-14T11:33:57.265Z,95.70
2022-12-14T11:36:37.232Z,95.80
2022-12-14T11:39:15.660Z,95.80
2022-12-14T11:41:46.372Z,95.80
2022-12-14T11:44:16.278Z,95.90
2022-12-14T11:47:04.956Z,95.80
2022-12-14T11:49:54.249Z,95.80
2022-12-14T11:52:22.959Z,95.70
2022-12-14T11:54:52.811Z,95.70
2022-12-14T11:57:33.438Z,95.60
2022-12-14T12:00:20.034Z,95.80
2022-12-14T12:03:20.639Z,95.80
2022-12-14T12:05:47.589Z,95.80
2022-12-14T12:08:27.352Z,95.70
2022-12-14T12:11:01.998Z,95.90
2022-12-14T12:13:35.231Z,95.80
2022-12-14T12:16:07.023Z,95.90
2022-12-14T12:18:55.438Z,95.90
2022-12-14T12:21:29.237Z,95.80
2022-12-14T12:23:58.811Z,95.90
2022-12-14T12:26:31.234Z,95.90
2022-12-14T12:29:20.784Z,95.90
2022-12-14T12:32:09.419Z,95.90
2022-12-14T12:34:54.738Z,95.90
2022-12-14T12:37:35.142Z,95.90
2022-12-14T12:40:17.090Z,95.90
2022-12-14T12:43:27.535Z,96.00
2022-12-14T12:46:15.578Z,95.90
2022-12-14T12:48:45.298Z,95.90
2022-12-14T12:51:17.703Z,95.90
2022-12-14T12:53:58.932Z,95.90
2022-12-14T12:56:48.126Z,95.90
2022-12-14T12:59:25.048Z,95.90
2022-12-14T13:01:55.368Z,95.80
2022-12-14T13:04:31.142Z,95.80
2022-12-14T13:07:06.218Z,95.80
2022-12-14T13:09:38.746Z,95.60
2022-12-14T13:12:13.006Z,95.70
2022-12-14T13:14:50.043Z,95.60
2022-12-14T13:17:28.242Z,95.60
2022-12-14T13:19:58.608Z,95.50
2022-12-14T13:22:36.806Z,95.50
2022-12-14T13:25:12.979Z,95.50
2022-12-14T13:27:58.959Z,95.50
2022-12-14T13:30:45.960Z,95.40
2022-12-14T13:33:36.691Z,95.70
2022-12-14T13:36:18.606Z,95.40
2022-12-14T13:39:13.408Z,95.50
2022-12-14T13:41:50.344Z,95.40
2022-12-14T13:44:44.043Z,95.40
2022-12-14T13:47:19.285Z,95.30
2022-12-14T13:50:34.396Z,95.10
2022-12-14T13:52:48.774Z,95.10
2022-12-14T13:55:55.782Z,95.20
2022-12-14T13:58:41.377Z,95.20
2022-12-14T14:01:14.884Z,95.20
2022-12-14T14:03:47.668Z,95.20
2022-12-14T14:06:34.767Z,95.20
2022-12-14T14:09:33.468Z,95.20
2022-12-14T14:12:34.427Z,95.20
2022-12-14T14:15:22.718Z,95.10
2022-12-14T14:17:54.270Z,95.10
2022-12-14T14:20:55.397Z,95.10
2022-12-14T14:23:30.720Z,95.10
2022-12-14T14:26:16.490Z,95.10
2022-12-14T14:28:43.660Z,95.10
2022-12-14T14:31:16.400Z,95.10
2022-12-14T14:33:55.158Z,95.00
2022-12-14T14:36:25.244Z,95.00
2022-12-14T14:38:55.174Z,95.00
2022-12-14T14:41:29.986Z,95.00
2022-12-14T14:44:02.507Z,95.00
2022-12-14T14:46:43.109Z,95.00
2022-12-14T14:49:31.021Z,95.00
2022-12-14T14:52:40.757Z,94.90
2022-12-14T14:55:51.961Z,94.90
2022-12-14T14:58:29.845Z,94.80
2022-12-14T15:01:06.294Z,94.80
2022-12-14T15:04:04.331Z,95.00
2022-12-14T15:06:44.057Z,95.00
2022-12-14T15:09:16.600Z,95.10
2022-12-14T15:11:52.475Z,95.00
2022-12-14T15:14:39.020Z,95.00
2022-12-14T15:17:19.682Z,95.00
2022-12-14T15:19:48.851Z,94.90
2022-12-14T15:22:30.615Z,94.90
2022-12-14T15:25:00.563Z,94.80
2022-12-14T15:27:34.777Z,94.80
2022-12-14T15:30:04.551Z,94.90
2022-12-14T15:32:31.778Z,94.80
2022-12-14T15:35:01.895Z,94.90
2022-12-14T15:37:56.475Z,95.00
2022-12-14T15:40:30.235Z,95.00
2022-12-14T15:43:03.912Z,95.10
2022-12-14T15:45:34.747Z,95.10
2022-12-14T15:48:19.625Z,94.90
2022-12-14T15:50:49.534Z,95.10
2022-12-14T15:53:24.551Z,94.90
2022-12-14T15:56:00.198Z,94.90
2022-12-14T15:58:34.744Z,94.90
2022-12-14T16:01:17.339Z,94.70
2022-12-14T16:03:47.375Z,94.60
2022-12-14T16:06:17.465Z,94.50
2022-12-14T16:09:06.108Z,94.50
2022-12-14T16:11:39.711Z,94.70
2022-12-14T16:14:30.647Z,94.50
2022-12-14T16:16:57.967Z,94.60
2022-12-14T16:19:57.562Z,94.60
2022-12-14T16:22:30.739Z,94.70
2022-12-14T16:25:00.596Z,94.50
2022-12-14T16:27:28.719Z,94.70
2022-12-14T16:30:23.993Z,94.70
2022-12-14T16:33:03.493Z,94.60
2022-12-14T16:35:34.100Z,94.60
2022-12-14T16:38:12.663Z,94.60
2022-12-14T16:41:01.209Z,94.60
2022-12-14T16:43:34.389Z,94.60
2022-12-14T16:46:08.657Z,94.60
2022-12-14T16:48:38.768Z,94.60
2022-12-14T16:51:50.895Z,94.60
2022-12-14T16:54:24.534Z,94.60
2022-12-14T16:56:57.047Z,94.60
2022-12-14T16:59:35.916Z,94.60
2022-12-14T17:02:03.638Z,94.50
2022-12-14T17:04:39.799Z,94.40
2022-12-14T17:07:06.888Z,94.40
2022-12-14T17:09:35.354Z,94.40
2022-12-14T17:12:11.363Z,94.20
2022-12-14T17:14:38.239Z,94.30
2022-12-14T17:17:05.504Z,94.40
2022-12-14T17:19:35.689Z,94.50
2022-12-14T17:22:05.369Z,94.40
2022-12-14T17:24:36.133Z,94.30
2022-12-14T17:27:03.252Z,94.30
2022-12-14T17:29:33.375Z,94.40
2022-12-14T17:32:02.712Z,94.30
2022-12-14T17:34:30.136Z,94.50
2022-12-14T17:36:57.347Z,94.40
2022-12-14T17:39:24.862Z,94.40
2022-12-14T17:41:52.380Z,94.50
2022-12-14T17:44:20.707Z,94.50
2022-12-14T17:46:50.683Z,94.50
2022-12-14T17:49:33.920Z,94.30
2022-12-14T17:52:07.126Z,94.60
2022-12-14T17:54:34.525Z,94.60
2022-12-14T17:57:01.336Z,94.60
2022-12-14T17:59:28.248Z,94.50
2022-12-14T18:01:55.126Z,94.70
2022-12-14T18:04:21.997Z,94.60
2022-12-14T18:06:48.796Z,94.70
2022-12-14T18:09:18.588Z,94.70
2022-12-14T18:12:14.337Z,94.70
2022-12-14T18:14:32.179Z,94.60
2022-12-14T18:17:01.052Z,94.80
2022-12-14T18:19:29.846Z,94.80
2022-12-14T18:21:57.121Z,94.80
2022-12-14T18:24:26.284Z,94.80
2022-12-14T18:26:53.299Z,94.70
2022-12-14T18:29:20.400Z,94.60
2022-12-14T18:31:49.711Z,94.80
2022-12-14T18:34:17.032Z,94.90
2022-12-14T18:36:43.915Z,94.80
2022-12-14T18:39:10.744Z,94.80
2022-12-14T18:41:37.588Z,94.60
2022-12-14T18:44:04.569Z,94.60
2022-12-14T18:46:31.468Z,94.90
2022-12-14T18:48:58.395Z,94.90
2022-12-14T18:51:26.986Z,94.90
2022-12-14T18:53:55.582Z,94.90
2022-12-14T18:56:24.098Z,94.70
2022-12-14T18:58:51.891Z,94.90
2022-12-14T19:01:22.066Z,94.90
2022-12-14T19:03:50.117Z,94.90
2022-12-14T19:09:06.403Z,94.80
2022-12-14T19:11:39.412Z,94.90
2022-12-14T19:14:06.977Z,94.90
2022-12-14T19:16:34.207Z,94.90
2022-12-14T19:19:01.146Z,95.00
2022-12-14T19:21:29.484Z,94.90
2022-12-14T19:23:56.617Z,95.00
2022-12-14T19:26:23.524Z,95.00
2022-12-14T19:28:50.386Z,95.00
2022-12-14T19:31:17.288Z,95.00
2022-12-14T19:33:44.192Z,95.10
2022-12-14T19:36:11.260Z,95.10
2022-12-14T19:38:38.131Z,95.20
2022-12-14T19:41:09.988Z,95.00
2022-12-14T19:43:37.052Z,95.50
2022-12-14T19:46:11.745Z,95.40
2022-12-14T19:48:38.762Z,95.40
2022-12-14T19:51:07.832Z,95.40
2022-12-14T19:53:35.806Z,95.50
2022-12-14T19:56:03.704Z,95.50
2022-12-14T19:58:30.673Z,95.60
2022-12-14T20:00:57.969Z,95.70
2022-12-14T20:03:25.589Z,96.10
2022-12-14T20:05:54.143Z,95.90
2022-12-14T20:08:21.775Z,96.10
2022-12-14T20:10:49.067Z,96.20
2022-12-14T20:13:16.198Z,96.30
2022-12-14T20:15:52.350Z,96.40
2022-12-14T20:18:20.603Z,96.50
2022-12-14T20:20:49.596Z,96.70
2022-12-14T20:23:21.605Z,96.80
2022-12-14T20:25:48.834Z,97.10
2022-12-14T20:28:15.623Z,97.20
2022-12-14T20:30:47.319Z,97.30
2022-12-14T20:33:14.442Z,97.30
2022-12-14T20:35:41.265Z,97.40
2022-12-14T20:38:08.312Z,97.40
2022-12-14T20:40:38.782Z,97.50
2022-12-14T20:43:07.340Z,97.60
2022-12-14T20:45:41.380Z,97.70
2022-12-14T20:48:08.659Z,97.70
2022-12-14T20:50:36.986Z,97.80
2022-12-14T20:53:04.677Z,97.90
2022-12-14T20:55:31.709Z,97.90
2022-12-14T20:57:58.508Z,98.10
2022-12-14T21:00:25.699Z,98.20
2022-12-14T21:02:52.864Z,98.10
2022-12-14T21:05:20.054Z,98.20
2022-12-14T21:07:47.159Z,98.30
2022-12-14T21:10:13.985Z,98.40
2022-12-14T21:12:40.792Z,98.40
2022-12-14T21:15:08.022Z,98.50
2022-12-14T21:17:34.911Z,98.50
2022-12-14T21:20:01.905Z,98.60
2022-12-14T21:22:30.495Z,98.60
2022-12-14T21:25:06.435Z,98.70
2022-12-14T21:27:36.079Z,98.80
2022-12-14T21:30:03.426Z,98.80
2022-12-14T21:32:30.296Z,98.90
2022-12-14T21:34:57.183Z,98.90
2022-12-14T21:37:24.083Z,99.00
2022-12-14T21:39:54.302Z,99.10
2022-12-14T21:42:22.418Z,99.00
2022-12-14T21:44:51.603Z,98.90
2022-12-14T21:47:21.887Z,99.20
2022-12-14T21:49:49.242Z,99.20
2022-12-14T21:52:20.556Z,99.30
2022-12-14T21:54:47.379Z,99.30
2022-12-14T21:57:34.706Z,99.40
2022-12-14T22:00:02.058Z,99.40
2022-12-14T22:02:29.769Z,99.50
2022-12-14T22:04:56.712Z,99.50
2022-12-14T22:07:28.894Z,99.50
2022-12-14T22:09:55.687Z,99.50
2022-12-14T22:12:22.543Z,99.50
2022-12-14T22:14:50.092Z,99.40
2022-12-14T22:17:16.931Z,99.60
2022-12-14T22:19:43.692Z,99.70
2022-12-14T22:22:17.002Z,99.60
2022-12-14T22:24:45.109Z,99.40
2022-12-14T22:27:13.043Z,99.50
2022-12-14T22:29:40.091Z,99.30
2022-12-14T22:32:07.371Z,99.40
2022-12-14T22:34:34.699Z,99.40
2022-12-14T22:37:01.758Z,99.30
2022-12-14T22:39:28.648Z,99.40
2022-12-14T22:41:55.467Z,99.30
2022-12-14T22:44:22.271Z,99.50
2022-12-14T22:46:49.948Z,99.50
2022-12-14T22:49:18.342Z,99.50
2022-12-14T22:51:45.608Z,99.40
2022-12-14T22:54:32.829Z,99.50
2022-12-14T22:57:02.443Z,99.50
2022-12-14T22:59:36.437Z,99.50
2022-12-14T23:02:04.129Z,99.40
2022-12-14T23:04:31.248Z,99.50
2022-12-14T23:06:58.093Z,99.50
2022-12-14T23:09:43.735Z,99.60
2022-12-14T23:12:29.264Z,99.50
2022-12-14T23:15:15.152Z,99.60
2022-12-14T23:18:00.580Z,99.50
2022-12-14T23:20:46.367Z,99.50
2022-12-14T23:23:32.063Z,99.50
2022-12-14T23:26:22.243Z,99.40
2022-12-14T23:29:07.929Z,99.40
2022-12-14T23:31:53.477Z,99.40
2022-12-14T23:34:40.173Z,99.30
2022-12-14T23:37:25.604Z,99.30
2022-12-14T23:40:11.152Z,99.40
2022-12-14T23:42:56.417Z,99.20
2022-12-14T23:45:41.629Z,99.20
2022-12-14T23:48:27.316Z,99.20
2022-12-14T23:51:12.841Z,99.20
2022-12-14T23:53:58.361Z,99.20
2022-12-14T23:56:44.047Z,99.20
2022-12-14T23:59:32.278Z,99.10
